createdAt,value
2022-09-16T00:02:28.044Z,23.12
2022-09-16T00:05:00.432Z,23.19
2022-09-16T00:07:32.784Z,23.31
2022-09-16T00:10:07.122Z,23.19
2022-09-16T00:12:39.569Z,23.19
2022-09-16T00:15:11.922Z,23.09
2022-09-16T00:17:44.286Z,23.16
2022-09-16T00:20:16.652Z,23.15
2022-09-16T00:22:49.030Z,23.07
2022-09-16T00:25:22.015Z,23.15
2022-09-16T00:27:54.352Z,23.12
2022-09-16T00:30:26.728Z,23.01
2022-09-16T00:32:59.145Z,23.02
2022-09-16T00:35:31.640Z,23.08
2022-09-16T00:38:03.951Z,23.16
2022-09-16T00:40:43.999Z,23.00
2022-09-16T00:43:17.633Z,23.05
2022-09-16T00:45:57.039Z,22.95
2022-09-16T00:48:32.232Z,22.91
2022-09-16T00:51:08.503Z,22.88
2022-09-16T00:53:44.950Z,23.06
2022-09-16T00:56:22.930Z,23.00
2022-09-16T00:59:02.680Z,23.10
2022-09-16T01:01:35.608Z,22.98
2022-09-16T01:04:13.403Z,22.96
2022-09-16T01:06:45.875Z,22.88
2022-09-16T01:09:22.212Z,22.77
2022-09-16T01:11:55.195Z,22.88
2022-09-16T01:14:47.218Z,22.86
2022-09-16T01:17:36.972Z,22.63
2022-09-16T01:20:39.019Z,22.65
2022-09-16T01:23:58.583Z,22.60
2022-09-16T01:26:57.597Z,22.59
2022-09-16T01:29:48.079Z,22.56
2022-09-16T01:32:27.853Z,22.54
2022-09-16T01:35:08.574Z,22.48
2022-09-16T01:37:47.020Z,22.46
2022-09-16T01:40:33.181Z,22.55
2022-09-16T01:43:15.180Z,22.59
2022-09-16T01:45:54.690Z,22.50
2022-09-16T01:48:35.451Z,22.54
2022-09-16T01:51:14.068Z,22.46
2022-09-16T01:53:51.387Z,22.48
2022-09-16T01:56:30.258Z,22.50
2022-09-16T01:59:08.255Z,22.58
2022-09-16T02:01:48.651Z,22.58
2022-09-16T02:04:25.189Z,22.64
2022-09-16T02:07:01.349Z,22.75
2022-09-16T02:09:37.113Z,22.71
2022-09-16T02:12:14.561Z,22.85
2022-09-16T02:14:49.307Z,22.88
2022-09-16T02:17:26.806Z,23.02
2022-09-16T02:20:03.778Z,23.06
2022-09-16T02:22:39.695Z,23.15
2022-09-16T02:25:15.495Z,23.18
2022-09-16T02:27:49.907Z,23.22
2022-09-16T02:30:23.455Z,23.23
2022-09-16T02:33:01.304Z,23.35
2022-09-16T02:35:37.193Z,23.39
2022-09-16T02:38:14.117Z,23.39
2022-09-16T02:40:52.348Z,23.23
2022-09-16T02:43:26.485Z,23.22
2022-09-16T02:46:07.728Z,23.19
2022-09-16T02:48:50.336Z,23.12
2022-09-16T02:51:33.555Z,23.16
2022-09-16T02:54:12.053Z,23.11
2022-09-16T02:56:44.464Z,23.12
2022-09-16T02:59:17.558Z,23.05
2022-09-16T03:01:49.949Z,23.10
2022-09-16T03:04:22.294Z,23.03
2022-09-16T03:06:55.373Z,22.97
2022-09-16T03:09:29.125Z,23.12
2022-09-16T03:12:17.931Z,23.18
2022-09-16T03:15:11.108Z,23.22
2022-09-16T03:18:00.354Z,23.22
2022-09-16T03:20:36.409Z,23.24
2022-09-16T03:23:18.710Z,23.21
2022-09-16T03:25:59.541Z,23.22
2022-09-16T03:28:42.867Z,23.22
2022-09-16T03:31:21.445Z,23.23
2022-09-16T03:34:02.521Z,23.17
2022-09-16T03:36:40.449Z,23.11
2022-09-16T03:39:14.886Z,23.04
2022-09-16T03:41:47.551Z,23.00
2022-09-16T03:44:19.855Z,22.93
2022-09-16T03:46:52.164Z,22.87
2022-09-16T03:49:24.598Z,22.90
2022-09-16T03:51:57.303Z,22.79
2022-09-16T03:54:30.642Z,22.77
2022-09-16T03:57:03.751Z,22.72
2022-09-16T03:59:36.082Z,22.70
2022-09-16T04:02:08.413Z,22.65
2022-09-16T04:04:40.731Z,22.62
2022-09-16T04:07:13.124Z,22.59
2022-09-16T04:09:46.122Z,22.54
2022-09-16T04:12:18.437Z,22.46
2022-09-16T04:14:50.766Z,22.37
2022-09-16T04:17:23.513Z,22.30
2022-09-16T04:19:55.875Z,22.28
2022-09-16T04:22:29.065Z,22.23
2022-09-16T04:25:02.108Z,22.25
2022-09-16T04:27:34.375Z,22.23
2022-09-16T04:30:08.000Z,22.11
2022-09-16T04:32:40.241Z,22.06
2022-09-16T04:35:12.583Z,22.06
2022-09-16T04:37:45.002Z,21.96
2022-09-16T04:40:18.206Z,21.93
2022-09-16T04:42:51.227Z,21.91
2022-09-16T04:45:23.671Z,21.91
2022-09-16T04:47:56.882Z,21.88
2022-09-16T04:50:29.350Z,21.85
2022-09-16T04:53:01.679Z,21.85
2022-09-16T04:55:34.670Z,21.82
2022-09-16T04:58:06.930Z,21.78
2022-09-16T05:00:39.601Z,21.71
2022-09-16T05:03:11.945Z,21.53
2022-09-16T05:05:44.316Z,21.47
2022-09-16T05:08:16.588Z,21.41
2022-09-16T05:10:49.599Z,21.28
2022-09-16T05:13:23.007Z,21.29
2022-09-16T05:15:55.384Z,21.30
2022-09-16T05:18:27.811Z,21.23
2022-09-16T05:21:01.877Z,21.29
2022-09-16T05:23:34.767Z,21.35
2022-09-16T05:26:09.845Z,21.40
2022-09-16T05:28:42.675Z,21.40
2022-09-16T05:31:16.600Z,21.49
2022-09-16T05:33:54.179Z,21.51
2022-09-16T05:36:28.697Z,21.58
2022-09-16T05:41:57.561Z,21.76
2022-09-16T05:44:30.371Z,21.79
2022-09-16T05:47:03.007Z,21.83
2022-09-16T05:49:36.431Z,21.99
2022-09-16T05:52:09.218Z,22.03
2022-09-16T05:54:41.654Z,22.07
2022-09-16T05:57:14.635Z,22.13
2022-09-16T05:59:46.968Z,22.15
2022-09-16T06:02:19.353Z,22.16
2022-09-16T06:04:52.560Z,22.20
2022-09-16T06:07:24.890Z,22.33
2022-09-16T06:09:57.171Z,22.42
2022-09-16T06:12:30.217Z,22.45
2022-09-16T06:15:02.564Z,22.55
2022-09-16T06:17:35.019Z,22.65
2022-09-16T06:20:13.274Z,22.69
2022-09-16T06:22:45.915Z,22.77
2022-09-16T06:25:18.238Z,22.83
2022-09-16T06:27:51.247Z,22.90
2022-09-16T06:30:24.681Z,22.97
2022-09-16T06:32:59.427Z,22.98
2022-09-16T06:35:34.344Z,23.00
2022-09-16T06:38:06.673Z,23.04
2022-09-16T06:40:38.990Z,22.96
2022-09-16T06:43:11.958Z,23.03
2022-09-16T06:45:44.318Z,23.06
2022-09-16T06:48:16.783Z,23.15
2022-09-16T06:50:49.065Z,23.06
2022-09-16T06:53:22.355Z,23.07
2022-09-16T06:55:54.782Z,23.18
2022-09-16T06:58:28.968Z,23.37
2022-09-16T07:01:05.512Z,23.43
2022-09-16T07:03:39.085Z,23.52
2022-09-16T07:06:13.203Z,23.53
2022-09-16T07:08:46.277Z,23.85
2022-09-16T07:11:20.768Z,23.83
2022-09-16T07:13:53.971Z,23.96
2022-09-16T07:16:26.593Z,24.25
2022-09-16T07:19:01.233Z,24.55
2022-09-16T07:21:33.785Z,24.70
2022-09-16T07:24:06.153Z,24.84
2022-09-16T07:26:39.966Z,25.02
2022-09-16T07:29:14.470Z,25.20
2022-09-16T07:31:47.442Z,25.40
2022-09-16T07:34:19.788Z,25.41
2022-09-16T07:36:52.234Z,25.60
2022-09-16T07:39:25.354Z,25.68
2022-09-16T07:41:57.619Z,25.82
2022-09-16T07:44:30.711Z,25.88
2022-09-16T07:47:03.187Z,26.19
2022-09-16T07:49:35.499Z,26.27
2022-09-16T07:52:07.899Z,26.27
2022-09-16T07:54:41.132Z,26.56
2022-09-16T07:57:13.812Z,26.75
2022-09-16T07:59:47.223Z,26.76
2022-09-16T08:02:19.707Z,26.46
2022-09-16T08:04:52.126Z,26.60
2022-09-16T08:07:24.378Z,26.44
2022-09-16T08:09:56.667Z,26.78
2022-09-16T08:12:31.682Z,26.56
2022-09-16T08:15:06.059Z,26.69
2022-09-16T08:17:38.370Z,26.89
2022-09-16T08:20:10.843Z,26.87
2022-09-16T08:22:43.210Z,26.92
2022-09-16T08:25:15.704Z,27.18
2022-09-16T08:27:48.717Z,27.37
2022-09-16T08:30:22.899Z,27.46
2022-09-16T08:32:56.096Z,27.15
2022-09-16T08:35:28.387Z,27.09
2022-09-16T08:38:00.793Z,26.81
2022-09-16T08:40:35.702Z,26.62
2022-09-16T08:43:16.258Z,26.81
2022-09-16T08:45:54.962Z,26.81
2022-09-16T08:48:34.980Z,27.05
2022-09-16T08:51:09.195Z,27.05
2022-09-16T08:53:46.034Z,27.20
2022-09-16T08:56:21.993Z,27.28
2022-09-16T08:58:57.078Z,27.19
2022-09-16T09:01:36.352Z,26.99
2022-09-16T09:04:08.931Z,26.84
2022-09-16T09:06:58.590Z,26.93
2022-09-16T09:09:48.688Z,27.17
2022-09-16T09:12:29.387Z,27.21
2022-09-16T09:15:26.082Z,27.24
2022-09-16T09:18:16.101Z,27.28
2022-09-16T09:20:56.577Z,27.26
2022-09-16T09:23:43.919Z,27.41
2022-09-16T09:26:21.581Z,27.52
2022-09-16T09:29:24.142Z,27.65
2022-09-16T09:32:03.882Z,27.78
2022-09-16T09:34:54.540Z,27.88
2022-09-16T09:37:42.474Z,27.98
2022-09-16T09:40:20.174Z,27.90
2022-09-16T09:43:04.363Z,27.98
2022-09-16T09:45:40.702Z,27.92
2022-09-16T09:48:18.201Z,27.95
2022-09-16T09:50:53.051Z,28.07
2022-09-16T09:53:29.442Z,28.00
2022-09-16T09:56:12.834Z,28.03
2022-09-16T09:58:53.533Z,27.85
2022-09-16T10:01:25.941Z,27.84
2022-09-16T10:03:59.710Z,27.63
2022-09-16T10:06:35.038Z,27.49
2022-09-16T10:09:12.446Z,27.40
2022-09-16T10:11:49.336Z,27.22
2022-09-16T10:14:29.689Z,26.91
2022-09-16T10:17:04.727Z,26.02
2022-09-16T10:19:49.539Z,25.50
2022-09-16T10:22:26.052Z,24.83
2022-09-16T10:25:00.177Z,24.42
2022-09-16T10:27:35.272Z,24.00
2022-09-16T10:30:14.387Z,23.37
2022-09-16T10:32:52.272Z,23.19
2022-09-16T10:35:27.313Z,22.46
2022-09-16T10:38:03.782Z,22.26
2022-09-16T10:40:36.793Z,22.05
2022-09-16T10:43:15.754Z,21.15
2022-09-16T10:45:50.684Z,20.87
2022-09-16T10:48:26.786Z,20.71
2022-09-16T10:51:01.460Z,20.25
2022-09-16T10:53:39.426Z,20.01
2022-09-16T10:56:18.394Z,19.76
2022-09-16T10:59:03.213Z,19.71
2022-09-16T11:01:46.450Z,19.41
2022-09-16T11:04:37.191Z,19.31
2022-09-16T11:07:42.642Z,19.13
2022-09-16T11:10:23.865Z,19.11
2022-09-16T11:13:16.494Z,19.42
2022-09-16T11:16:06.027Z,19.45
2022-09-16T11:18:50.780Z,19.70
2022-09-16T11:21:44.987Z,19.83
2022-09-16T11:24:32.614Z,20.14
2022-09-16T11:27:12.671Z,19.99
2022-09-16T11:30:04.521Z,20.23
2022-09-16T11:33:02.320Z,20.33
2022-09-16T11:36:03.703Z,20.59
2022-09-16T11:38:43.878Z,20.91
2022-09-16T11:41:25.037Z,21.17
2022-09-16T11:44:15.518Z,21.43
2022-09-16T11:47:01.441Z,21.70
2022-09-16T11:49:54.431Z,21.93
2022-09-16T11:52:42.329Z,22.07
2022-09-16T11:55:36.046Z,22.37
2022-09-16T11:58:21.531Z,22.69
2022-09-16T12:00:59.153Z,23.01
2022-09-16T12:03:39.970Z,23.19
2022-09-16T12:06:17.204Z,23.32
2022-09-16T12:08:58.014Z,23.43
2022-09-16T12:11:35.863Z,23.64
2022-09-16T12:14:20.305Z,23.73
2022-09-16T12:16:58.619Z,23.87
2022-09-16T12:19:35.922Z,23.99
2022-09-16T12:22:15.528Z,24.11
2022-09-16T12:24:53.462Z,24.14
2022-09-16T12:27:38.743Z,24.22
2022-09-16T12:30:17.523Z,24.26
2022-09-16T12:32:59.333Z,24.33
2022-09-16T12:35:34.963Z,24.34
2022-09-16T12:38:17.729Z,24.31
2022-09-16T12:41:12.778Z,24.37
2022-09-16T12:44:33.555Z,24.08
2022-09-16T12:47:46.077Z,23.71
2022-09-16T12:50:49.079Z,23.60
2022-09-16T12:53:57.531Z,23.45
2022-09-16T12:56:45.775Z,23.42
2022-09-16T12:59:50.937Z,23.43
2022-09-16T13:02:28.306Z,23.13
2022-09-16T13:05:11.080Z,22.97
2022-09-16T13:07:50.305Z,22.83
2022-09-16T13:10:53.848Z,22.53
2022-09-16T13:13:30.825Z,22.26
2022-09-16T13:16:06.792Z,22.04
2022-09-16T13:18:43.006Z,22.04
2022-09-16T13:21:26.607Z,21.81
2022-09-16T13:24:12.418Z,21.72
2022-09-16T13:26:45.403Z,21.63
2022-09-16T13:29:31.247Z,21.58
2022-09-16T13:32:04.221Z,21.40
2022-09-16T13:34:36.559Z,21.30
2022-09-16T13:37:15.014Z,21.22
2022-09-16T13:39:50.334Z,21.08
2022-09-16T13:42:24.633Z,20.96
2022-09-16T13:44:56.963Z,20.76
2022-09-16T13:47:33.458Z,20.44
2022-09-16T13:50:12.817Z,20.30
2022-09-16T13:52:46.338Z,20.29
2022-09-16T13:55:22.335Z,20.16
2022-09-16T13:58:00.826Z,20.15
2022-09-16T14:00:40.834Z,20.35
2022-09-16T14:03:43.603Z,20.45
2022-09-16T14:06:40.441Z,20.25
2022-09-16T14:09:27.086Z,20.41
2022-09-16T14:12:08.159Z,20.32
2022-09-16T14:14:47.314Z,20.36
2022-09-16T14:17:23.147Z,20.34
2022-09-16T14:19:59.190Z,20.43
2022-09-16T14:22:33.010Z,20.45
2022-09-16T14:25:30.736Z,19.96
2022-09-16T14:28:17.192Z,19.79
2022-09-16T14:30:53.345Z,19.66
2022-09-16T14:33:29.601Z,19.82
2022-09-16T14:36:10.383Z,19.85
2022-09-16T14:38:46.635Z,19.85
2022-09-16T14:41:26.299Z,19.93
2022-09-16T14:44:03.083Z,20.08
2022-09-16T14:46:41.684Z,20.08
2022-09-16T14:49:15.567Z,20.17
2022-09-16T14:51:51.451Z,20.25
2022-09-16T14:54:25.889Z,20.37
2022-09-16T14:57:01.380Z,20.44
2022-09-16T14:59:37.296Z,20.48
2022-09-16T15:02:17.770Z,20.58
2022-09-16T15:04:54.634Z,20.62
2022-09-16T15:07:30.203Z,20.71
2022-09-16T15:10:06.977Z,20.80
2022-09-16T15:12:46.164Z,20.79
2022-09-16T15:15:22.395Z,20.76
2022-09-16T15:17:58.542Z,20.65
2022-09-16T15:20:33.383Z,20.62
2022-09-16T15:23:12.228Z,20.13
2022-09-16T15:25:53.053Z,19.88
2022-09-16T15:28:25.695Z,19.50
2022-09-16T15:30:59.499Z,19.32
2022-09-16T15:33:34.725Z,19.31
2022-09-16T15:36:27.291Z,19.31
2022-09-16T15:38:59.614Z,19.19
2022-09-16T15:41:32.047Z,19.03
2022-09-16T15:44:08.699Z,19.08
2022-09-16T15:46:45.701Z,19.09
2022-09-16T15:49:19.439Z,19.17
2022-09-16T15:51:52.542Z,19.16
2022-09-16T15:54:30.435Z,19.08
2022-09-16T15:57:08.928Z,19.15
2022-09-16T15:59:45.914Z,19.09
2022-09-16T16:02:24.875Z,19.24
2022-09-16T16:05:05.851Z,19.33
2022-09-16T16:07:40.634Z,19.26
2022-09-16T16:10:19.603Z,19.34
2022-09-16T16:12:53.855Z,19.31
2022-09-16T16:15:28.572Z,19.17
2022-09-16T16:18:05.316Z,19.47
2022-09-16T16:20:39.247Z,19.68
2022-09-16T16:23:12.479Z,19.80
2022-09-16T16:25:44.974Z,19.78
2022-09-16T16:28:17.343Z,19.91
2022-09-16T16:30:49.731Z,19.89
2022-09-16T16:33:22.738Z,19.81
2022-09-16T16:35:55.011Z,19.82
2022-09-16T16:38:27.390Z,19.77
2022-09-16T16:40:59.687Z,19.85
2022-09-16T16:43:32.015Z,19.95
2022-09-16T16:46:04.600Z,19.88
2022-09-16T16:48:38.418Z,19.85
2022-09-16T16:51:12.310Z,19.88
2022-09-16T16:53:47.513Z,19.91
2022-09-16T16:56:19.827Z,19.90
2022-09-16T16:58:54.018Z,19.95
2022-09-16T17:01:27.017Z,19.95
2022-09-16T17:04:00.455Z,19.95
2022-09-16T17:06:34.014Z,19.88
2022-09-16T17:09:10.242Z,20.02
2022-09-16T17:11:51.098Z,20.08
2022-09-16T17:14:25.036Z,20.01
2022-09-16T17:16:57.482Z,20.07
2022-09-16T17:19:31.729Z,20.02
2022-09-16T17:22:04.198Z,20.08
2022-09-16T17:24:36.549Z,20.23
2022-09-16T17:27:08.949Z,20.19
2022-09-16T17:29:41.303Z,20.10
2022-09-16T17:32:13.612Z,19.69
2022-09-16T17:34:46.592Z,19.56
2022-09-16T17:37:19.225Z,19.55
2022-09-16T17:39:51.563Z,19.36
2022-09-16T17:42:24.241Z,19.41
2022-09-16T17:44:56.591Z,19.49
2022-09-16T17:47:29.741Z,19.37
2022-09-16T17:50:04.663Z,19.51
2022-09-16T17:52:37.006Z,19.51
2022-09-16T17:55:09.554Z,19.53
2022-09-16T17:57:41.926Z,19.59
2022-09-16T18:00:15.515Z,19.70
2022-09-16T18:02:47.887Z,19.63
2022-09-16T18:05:21.012Z,19.71
2022-09-16T18:07:53.471Z,19.73
2022-09-16T18:10:26.115Z,19.65
2022-09-16T18:12:58.417Z,19.76
2022-09-16T18:15:30.735Z,19.76
2022-09-16T18:18:03.082Z,19.81
2022-09-16T18:20:36.055Z,19.82
2022-09-16T18:23:08.747Z,19.83
2022-09-16T18:25:41.063Z,19.84
2022-09-16T18:28:13.518Z,19.85
2022-09-16T18:30:45.910Z,19.69
2022-09-16T18:33:18.211Z,19.66
2022-09-16T18:35:51.485Z,19.62
2022-09-16T18:38:23.785Z,19.62
2022-09-16T18:41:04.286Z,19.71
2022-09-16T18:43:38.072Z,19.71
2022-09-16T18:46:12.340Z,19.71
2022-09-16T18:48:46.707Z,19.80
2022-09-16T18:51:21.562Z,19.79
2022-09-16T18:53:55.826Z,19.62
2022-09-16T18:56:30.334Z,19.66
2022-09-16T18:59:22.574Z,19.63
2022-09-16T19:01:57.913Z,19.81
2022-09-16T19:04:32.280Z,19.81
2022-09-16T19:07:07.439Z,19.91
2022-09-16T19:09:40.208Z,19.99
2022-09-16T19:12:13.389Z,20.03
2022-09-16T19:14:45.725Z,20.03
2022-09-16T19:17:18.246Z,20.06
2022-09-16T19:19:51.478Z,20.11
2022-09-16T19:22:24.583Z,20.10
2022-09-16T19:24:56.931Z,20.12
2022-09-16T19:27:29.593Z,20.16
2022-09-16T19:30:02.653Z,20.18
2022-09-16T19:32:35.172Z,20.29
2022-09-16T19:35:07.754Z,20.23
2022-09-16T19:37:40.720Z,20.35
2022-09-16T19:40:14.261Z,20.38
2022-09-16T19:42:47.075Z,20.41
2022-09-16T19:45:19.535Z,20.43
2022-09-16T19:47:51.908Z,20.37
2022-09-16T19:50:24.658Z,20.43
2022-09-16T19:52:57.671Z,20.43
2022-09-16T19:55:30.372Z,20.49
2022-09-16T19:58:02.739Z,20.47
2022-09-16T20:00:55.101Z,20.54
2022-09-16T20:03:29.875Z,20.58
2022-09-16T20:06:03.638Z,20.59
2022-09-16T20:08:38.855Z,20.55
2022-09-16T20:11:12.775Z,20.59
2022-09-16T20:13:48.563Z,20.58
2022-09-16T20:16:23.184Z,20.57
2022-09-16T20:18:55.561Z,20.59
2022-09-16T20:21:29.255Z,20.57
2022-09-16T20:24:04.887Z,20.59
2022-09-16T20:26:37.295Z,20.65
2022-09-16T20:29:09.694Z,20.62
2022-09-16T20:31:42.214Z,20.65
2022-09-16T20:34:15.561Z,20.67
2022-09-16T20:36:47.905Z,20.64
2022-09-16T20:39:21.432Z,20.64
2022-09-16T20:41:53.968Z,20.62
2022-09-16T20:44:26.350Z,20.68
2022-09-16T20:46:58.918Z,20.66
2022-09-16T20:49:31.431Z,20.68
2022-09-16T20:52:03.796Z,20.71
2022-09-16T20:54:36.785Z,20.74
2022-09-16T20:57:09.281Z,20.78
2022-09-16T20:59:41.743Z,20.75
2022-09-16T21:02:14.088Z,20.77
2022-09-16T21:04:46.422Z,20.78
2022-09-16T21:07:18.769Z,20.78
2022-09-16T21:09:51.740Z,20.76
2022-09-16T21:12:24.239Z,20.74
2022-09-16T21:14:57.034Z,20.71
2022-09-16T21:17:29.806Z,20.71
2022-09-16T21:20:02.678Z,20.75
2022-09-16T21:22:35.689Z,20.73
2022-09-16T21:25:09.194Z,20.76
2022-09-16T21:27:41.574Z,20.75
2022-09-16T21:30:14.090Z,20.76
2022-09-16T21:32:46.387Z,20.71
2022-09-16T21:35:18.685Z,20.69
2022-09-16T21:37:50.944Z,20.69
2022-09-16T21:40:24.024Z,20.66
2022-09-16T21:42:56.323Z,20.64
2022-09-16T21:45:28.623Z,20.62
2022-09-16T21:48:01.309Z,20.59
2022-09-16T21:50:33.783Z,20.54
2022-09-16T21:53:06.153Z,20.43
2022-09-16T21:55:39.502Z,19.96
2022-09-16T21:58:11.857Z,19.86
2022-09-16T22:00:44.220Z,19.56
2022-09-16T22:03:16.560Z,19.31
2022-09-16T22:05:48.878Z,19.11
2022-09-16T22:08:21.207Z,19.05
2022-09-16T22:10:59.727Z,18.96
2022-09-16T22:13:32.942Z,18.84
2022-09-16T22:16:06.472Z,18.62
2022-09-16T22:18:39.096Z,18.34
2022-09-16T22:21:13.596Z,18.19
2022-09-16T22:23:45.938Z,18.34
2022-09-16T22:26:20.783Z,18.47
2022-09-16T22:28:53.270Z,18.47
2022-09-16T22:31:27.673Z,18.33
2022-09-16T22:34:01.223Z,18.47
2022-09-16T22:36:35.338Z,18.50
2022-09-16T22:39:12.128Z,18.37
2022-09-16T22:41:45.751Z,18.28
2022-09-16T22:44:18.069Z,18.19
2022-09-16T22:46:50.488Z,18.31
2022-09-16T22:49:22.833Z,18.35
2022-09-16T22:51:55.185Z,18.37
2022-09-16T22:54:27.515Z,18.42
2022-09-16T22:57:00.479Z,18.38
2022-09-16T22:59:32.794Z,18.41
2022-09-16T23:02:05.329Z,18.41
2022-09-16T23:04:37.690Z,18.40
2022-09-16T23:07:09.983Z,18.40
2022-09-16T23:09:42.264Z,18.45
2022-09-16T23:12:16.286Z,18.47
2022-09-16T23:14:48.731Z,18.52
2022-09-16T23:17:21.288Z,18.53
2022-09-16T23:19:55.117Z,18.52
2022-09-16T23:22:27.423Z,18.57
2022-09-16T23:24:59.766Z,18.55
2022-09-16T23:27:32.771Z,18.58
2022-09-16T23:30:06.186Z,18.60
2022-09-16T23:32:38.458Z,18.59
2022-09-16T23:35:10.878Z,18.63
2022-09-16T23:37:43.177Z,18.66
2022-09-16T23:40:15.644Z,18.59
2022-09-16T23:42:50.212Z,18.65
2022-09-16T23:45:22.913Z,18.58
2022-09-16T23:47:55.243Z,18.43
2022-09-16T23:50:27.553Z,18.50
2022-09-16T23:52:59.974Z,18.51
2022-09-16T23:55:32.309Z,18.49
2022-09-16T23:58:05.300Z,18.55
